Terminal Aerodrome Forecast
Issued by NWS

Home | Current Version | Previous Version | Text Only | Print | Product List | Glossary On
Versions: 1 2 3 4 5 6 7 8 9 10 11 12
000
FTUS42 TJSJ 041120
TAFJMZ
TAF
TJMZ 041120Z 0412/0512 VRB05KT P6SM FEW025
     FM041700 27012KT P6SM VCSH SCT025 BKN040
     FM042300 08005KT P6SM FEW030 SCT060
      AMD NOT SKED=

USA.gov is the U.S. government's official web portal to all federal, state and local government web resources and services.